createdAt,value
2023-03-26T00:01:00.609Z,7.467
2023-03-26T00:02:00.905Z,7.421
2023-03-26T00:03:00.431Z,7.419
2023-03-26T00:04:00.767Z,7.432
2023-03-26T00:05:00.984Z,7.483
2023-03-26T00:06:00.362Z,7.605
2023-03-26T00:07:00.628Z,7.509
2023-03-26T00:08:00.768Z,7.493
2023-03-26T00:09:00.931Z,7.544
2023-03-26T00:10:01.066Z,7.557
2023-03-26T00:11:01.171Z,7.696
2023-03-26T00:12:00.382Z,7.675
2023-03-26T00:13:00.694Z,7.616
2023-03-26T00:14:00.911Z,7.675
2023-03-26T00:15:01.086Z,7.651
2023-03-26T00:16:00.278Z,7.662
2023-03-26T00:17:00.672Z,7.643
2023-03-26T00:18:00.966Z,7.624
2023-03-26T00:20:00.636Z,7.630
2023-03-26T00:21:00.837Z,7.638
2023-03-26T00:22:01.008Z,7.630
2023-03-26T00:23:00.552Z,7.632
2023-03-26T00:24:00.706Z,7.667
2023-03-26T00:25:00.947Z,7.611
2023-03-26T00:26:00.160Z,7.605
2023-03-26T00:27:00.240Z,7.584
2023-03-26T00:28:00.412Z,7.531
2023-03-26T00:29:00.602Z,7.560
2023-03-26T00:30:00.767Z,7.536
2023-03-26T00:31:00.969Z,7.547
2023-03-26T00:33:00.590Z,7.456
2023-03-26T00:34:00.849Z,7.456
2023-03-26T00:35:01.013Z,7.485
2023-03-26T00:36:01.896Z,7.464
2023-03-26T00:37:00.679Z,7.429
2023-03-26T00:38:00.796Z,7.453
2023-03-26T00:39:00.972Z,7.480
2023-03-26T00:40:00.766Z,7.411
2023-03-26T00:41:00.526Z,7.392
2023-03-26T00:42:00.863Z,7.480
2023-03-26T00:43:00.979Z,7.483
2023-03-26T00:45:00.436Z,7.354
2023-03-26T00:46:00.799Z,7.403
2023-03-26T00:47:00.172Z,7.344
2023-03-26T00:48:00.971Z,7.397
2023-03-26T00:49:03.388Z,7.389
2023-03-26T00:50:00.521Z,7.397
2023-03-26T00:51:00.743Z,7.376
2023-03-26T00:52:00.977Z,7.322
2023-03-26T00:53:00.126Z,7.306
2023-03-26T00:54:00.280Z,7.381
2023-03-26T00:55:00.476Z,7.416
2023-03-26T00:56:00.716Z,7.432
2023-03-26T00:57:01.160Z,7.392
2023-03-26T00:59:04.069Z,7.378
2023-03-26T01:00:03.180Z,7.389
2023-03-26T01:01:04.318Z,7.421
2023-03-26T01:03:03.406Z,7.395
2023-03-26T01:04:09.343Z,7.397
2023-03-26T01:05:04.197Z,7.400
2023-03-26T01:06:03.505Z,7.387
2023-03-26T01:07:03.700Z,7.387
2023-03-26T01:08:03.877Z,7.477
2023-03-26T01:09:04.133Z,7.483
2023-03-26T01:10:03.338Z,7.475
2023-03-26T01:11:03.582Z,7.499
2023-03-26T01:12:03.905Z,7.472
2023-03-26T01:13:03.151Z,7.477
2023-03-26T01:14:03.434Z,7.568
2023-03-26T01:15:03.612Z,7.547
2023-03-26T01:16:04.000Z,7.555
2023-03-26T01:18:04.103Z,7.563
2023-03-26T01:19:03.367Z,7.587
2023-03-26T01:20:03.593Z,7.565
2023-03-26T01:21:03.830Z,7.587
2023-03-26T01:23:03.336Z,7.581
2023-03-26T01:24:03.673Z,7.579
2023-03-26T01:25:03.960Z,7.587
2023-03-26T01:26:03.228Z,7.643
2023-03-26T01:27:03.562Z,7.605
2023-03-26T01:28:03.692Z,7.616
2023-03-26T01:29:03.932Z,7.584
2023-03-26T01:30:04.098Z,7.587
2023-03-26T01:31:03.227Z,7.472
2023-03-26T01:32:03.468Z,7.483
2023-03-26T01:33:04.052Z,7.477
2023-03-26T01:34:03.840Z,7.541
2023-03-26T01:35:04.064Z,7.461
2023-03-26T01:37:03.857Z,7.459
2023-03-26T01:38:04.033Z,7.445
2023-03-26T01:39:03.212Z,7.533
2023-03-26T01:40:03.543Z,7.533
2023-03-26T01:41:03.917Z,7.533
2023-03-26T01:42:03.203Z,7.541
2023-03-26T01:43:03.409Z,7.549
2023-03-26T01:44:03.737Z,7.531
2023-03-26T01:45:03.992Z,7.496
2023-03-26T01:46:04.189Z,7.483
2023-03-26T01:47:03.462Z,7.483
2023-03-26T01:48:03.881Z,7.520
2023-03-26T01:49:03.223Z,7.541
2023-03-26T01:50:03.451Z,7.544
2023-03-26T01:51:03.797Z,7.504
2023-03-26T01:52:04.256Z,7.499
2023-03-26T01:53:03.555Z,7.467
2023-03-26T01:54:03.737Z,7.509
2023-03-26T01:55:04.111Z,7.509
2023-03-26T01:56:03.320Z,7.507
2023-03-26T01:57:03.606Z,7.464
2023-03-26T01:58:03.927Z,7.445
2023-03-26T01:59:03.185Z,7.496
2023-03-26T02:00:03.295Z,7.512
2023-03-26T02:01:03.579Z,7.464
2023-03-26T02:02:04.107Z,7.429
2023-03-26T02:03:04.255Z,7.405
2023-03-26T02:04:03.135Z,7.451
2023-03-26T02:05:03.359Z,7.400
2023-03-26T02:06:03.607Z,7.376
2023-03-26T02:07:03.783Z,7.376
2023-03-26T02:08:03.976Z,7.354
2023-03-26T02:09:03.214Z,7.344
2023-03-26T02:10:03.458Z,7.368
2023-03-26T02:11:03.723Z,7.317
2023-03-26T02:12:03.204Z,7.264
2023-03-26T02:13:03.497Z,7.248
2023-03-26T02:14:03.729Z,7.242
2023-03-26T02:15:03.924Z,7.274
2023-03-26T02:16:04.202Z,7.218
2023-03-26T02:18:03.820Z,7.146
2023-03-26T02:19:04.193Z,7.138
2023-03-26T02:20:03.189Z,7.144
2023-03-26T02:21:03.389Z,7.144
2023-03-26T02:22:03.769Z,7.125
2023-03-26T02:23:04.033Z,7.085
2023-03-26T02:24:03.555Z,7.029
2023-03-26T02:25:04.080Z,7.111
2023-03-26T02:27:03.604Z,7.002
2023-03-26T02:28:03.857Z,6.949
2023-03-26T02:29:04.031Z,6.965
2023-03-26T02:31:03.359Z,6.906
2023-03-26T02:32:03.712Z,6.911
2023-03-26T02:33:04.063Z,6.901
2023-03-26T02:34:03.358Z,6.901
2023-03-26T02:35:03.560Z,6.852
2023-03-26T02:36:03.385Z,6.876
2023-03-26T02:37:04.099Z,6.802
2023-03-26T02:38:03.238Z,6.746
2023-03-26T02:39:03.388Z,6.690
2023-03-26T02:40:03.680Z,6.743
2023-03-26T02:41:03.945Z,6.748
2023-03-26T02:42:04.130Z,6.788
2023-03-26T02:43:03.508Z,6.732
2023-03-26T02:44:03.833Z,6.633
2023-03-26T02:45:04.099Z,6.588
2023-03-26T02:46:03.263Z,6.585
2023-03-26T02:47:03.812Z,6.607
2023-03-26T02:48:03.135Z,6.484
2023-03-26T02:49:03.477Z,6.495
2023-03-26T02:50:03.725Z,6.465
2023-03-26T02:51:04.047Z,6.484
2023-03-26T02:52:03.228Z,6.345
2023-03-26T02:53:03.353Z,6.254
2023-03-26T02:54:03.505Z,6.324
2023-03-26T02:55:03.780Z,6.238
2023-03-26T02:56:04.007Z,6.246
2023-03-26T02:57:03.212Z,6.332
2023-03-26T02:58:03.452Z,6.185
2023-03-26T02:59:03.771Z,6.123
2023-03-26T03:00:03.960Z,6.086
2023-03-26T03:01:03.401Z,6.086
2023-03-26T03:02:04.023Z,6.062
2023-03-26T03:03:03.515Z,6.043
2023-03-26T03:06:03.523Z,5.939
2023-03-26T03:07:03.822Z,5.854
2023-03-26T03:08:04.040Z,5.854
2023-03-26T03:09:03.286Z,5.811
2023-03-26T03:10:03.494Z,5.782
2023-03-26T03:11:03.699Z,5.742
2023-03-26T03:12:03.997Z,5.752
2023-03-26T03:13:03.446Z,5.624
2023-03-26T03:14:03.716Z,5.629
2023-03-26T03:15:03.916Z,5.571
2023-03-26T03:16:05.264Z,5.536
2023-03-26T03:17:06.761Z,5.552
2023-03-26T03:18:05.966Z,5.651
2023-03-26T03:19:04.111Z,5.664
2023-03-26T03:20:03.552Z,5.659
2023-03-26T03:21:03.809Z,5.653
2023-03-26T03:22:04.044Z,5.790
2023-03-26T03:23:03.167Z,5.632
2023-03-26T03:24:03.283Z,5.736
2023-03-26T03:25:03.507Z,5.728
2023-03-26T03:26:03.726Z,5.800
2023-03-26T03:27:03.892Z,5.795
2023-03-26T03:28:04.064Z,5.950
2023-03-26T03:29:03.199Z,5.971
2023-03-26T03:30:03.389Z,5.969
2023-03-26T03:31:03.644Z,5.977
2023-03-26T03:32:04.141Z,5.934
2023-03-26T03:33:03.597Z,5.832
2023-03-26T03:34:04.113Z,5.747
2023-03-26T03:35:03.371Z,5.843
2023-03-26T03:36:03.782Z,5.878
2023-03-26T03:37:04.161Z,5.856
2023-03-26T03:38:03.305Z,5.886
2023-03-26T03:39:03.463Z,5.819
2023-03-26T03:40:03.654Z,5.792
2023-03-26T03:41:03.835Z,5.766
2023-03-26T03:42:04.036Z,5.779
2023-03-26T03:43:03.241Z,5.712
2023-03-26T03:44:03.674Z,5.848
2023-03-26T03:45:03.873Z,5.760
2023-03-26T03:46:03.205Z,5.736
2023-03-26T03:47:03.565Z,5.827
2023-03-26T03:48:03.789Z,5.795
2023-03-26T03:49:04.079Z,5.880
2023-03-26T03:50:03.264Z,5.856
2023-03-26T03:51:03.425Z,5.758
2023-03-26T03:52:03.712Z,5.704
2023-03-26T03:53:03.824Z,5.800
2023-03-26T03:54:04.046Z,5.832
2023-03-26T03:55:03.149Z,5.779
2023-03-26T03:56:03.296Z,5.808
2023-03-26T03:57:03.964Z,5.883
2023-03-26T03:58:03.285Z,5.918
2023-03-26T03:59:03.504Z,5.995
2023-03-26T04:00:06.821Z,5.915
2023-03-26T04:01:03.154Z,5.856
2023-03-26T04:02:03.284Z,5.752
2023-03-26T04:03:03.751Z,5.888
2023-03-26T04:05:03.963Z,5.859
2023-03-26T04:06:03.131Z,5.883
2023-03-26T04:07:03.505Z,5.832
2023-03-26T04:08:03.657Z,5.790
2023-03-26T04:09:03.873Z,5.747
2023-03-26T04:10:04.070Z,5.736
2023-03-26T04:11:03.234Z,5.568
2023-03-26T04:12:03.397Z,5.549
2023-03-26T04:13:03.816Z,5.549
2023-03-26T04:14:04.052Z,5.592
2023-03-26T04:15:03.308Z,5.613
2023-03-26T04:16:03.535Z,5.533
2023-03-26T04:17:03.891Z,5.600
2023-03-26T04:18:04.188Z,5.525
2023-03-26T04:19:03.492Z,5.485
2023-03-26T04:20:04.038Z,5.451
2023-03-26T04:22:03.588Z,5.451
2023-03-26T04:23:03.749Z,5.389
2023-03-26T04:24:03.994Z,5.472
2023-03-26T04:25:03.197Z,5.432
2023-03-26T04:26:03.575Z,5.461
2023-03-26T04:27:03.815Z,5.464
2023-03-26T04:28:03.979Z,5.501
2023-03-26T04:29:03.165Z,5.475
2023-03-26T04:30:03.515Z,5.453
2023-03-26T04:31:03.788Z,5.349
2023-03-26T04:32:03.143Z,5.352
2023-03-26T04:33:03.417Z,5.400
2023-03-26T04:34:03.911Z,5.448
2023-03-26T04:35:04.185Z,5.469
2023-03-26T04:37:03.694Z,5.573
2023-03-26T04:38:03.886Z,5.504
2023-03-26T04:39:04.065Z,5.597
2023-03-26T04:40:03.338Z,5.621
2023-03-26T04:41:04.604Z,5.648
2023-03-26T04:42:03.820Z,5.627
2023-03-26T04:43:04.048Z,5.661
2023-03-26T04:44:03.186Z,5.648
2023-03-26T04:45:03.352Z,5.672
2023-03-26T04:46:03.780Z,5.691
2023-03-26T04:47:04.142Z,5.651
2023-03-26T04:48:03.414Z,5.613
2023-03-26T04:49:03.577Z,5.629
2023-03-26T04:50:03.773Z,5.640
2023-03-26T04:51:04.016Z,5.637
2023-03-26T04:52:03.210Z,5.597
2023-03-26T04:53:03.367Z,5.571
2023-03-26T04:54:03.640Z,5.592
2023-03-26T04:55:03.789Z,5.587
2023-03-26T04:56:03.952Z,5.544
2023-03-26T04:57:04.225Z,5.515
2023-03-26T04:58:03.529Z,5.525
2023-03-26T04:59:03.876Z,5.549
2023-03-26T05:00:04.006Z,5.477
2023-03-26T05:01:10.046Z,5.451
2023-03-26T05:02:03.674Z,5.451
2023-03-26T05:03:03.812Z,5.469
2023-03-26T05:04:03.267Z,5.424
2023-03-26T05:05:03.724Z,5.459
2023-03-26T05:06:03.961Z,5.435
2023-03-26T05:07:04.163Z,5.517
2023-03-26T05:08:03.292Z,5.448
2023-03-26T05:09:03.508Z,5.501
2023-03-26T05:10:03.859Z,5.523
2023-03-26T05:11:03.101Z,5.525
2023-03-26T05:12:03.276Z,5.539
2023-03-26T05:13:03.446Z,5.528
2023-03-26T05:14:03.602Z,5.528
2023-03-26T05:15:03.789Z,5.560
2023-03-26T05:16:03.977Z,5.624
2023-03-26T05:17:03.372Z,5.659
2023-03-26T05:18:03.519Z,5.632
2023-03-26T05:19:04.034Z,5.694
2023-03-26T05:21:03.400Z,5.707
2023-03-26T05:22:03.635Z,5.744
2023-03-26T05:23:03.781Z,5.742
2023-03-26T05:24:04.005Z,5.787
2023-03-26T05:25:03.161Z,5.843
2023-03-26T05:26:03.388Z,5.888
2023-03-26T05:27:03.592Z,5.859
2023-03-26T05:28:03.807Z,5.896
2023-03-26T05:29:04.139Z,5.859
2023-03-26T05:30:03.240Z,5.945
2023-03-26T05:31:03.476Z,5.979
2023-03-26T05:32:03.629Z,6.041
2023-03-26T05:33:04.060Z,6.041
2023-03-26T05:34:04.108Z,6.030
2023-03-26T05:35:03.456Z,6.062
2023-03-26T05:36:03.683Z,6.041
2023-03-26T05:37:03.901Z,6.107
2023-03-26T05:39:03.209Z,6.057
2023-03-26T05:40:03.409Z,6.086
2023-03-26T05:41:03.686Z,6.091
2023-03-26T05:42:03.974Z,6.065
2023-03-26T05:43:03.175Z,6.142
2023-03-26T05:44:03.328Z,6.129
2023-03-26T05:45:03.537Z,6.115
2023-03-26T05:47:03.961Z,6.147
2023-03-26T05:48:03.181Z,6.153
2023-03-26T05:49:03.432Z,6.142
2023-03-26T05:50:03.601Z,6.121
2023-03-26T05:51:03.815Z,6.129
2023-03-26T05:52:04.015Z,6.126
2023-03-26T05:53:03.114Z,6.158
2023-03-26T05:54:03.271Z,6.196
2023-03-26T05:55:03.460Z,6.180
2023-03-26T05:56:03.653Z,6.180
2023-03-26T05:57:03.866Z,6.198
2023-03-26T05:58:03.143Z,6.193
2023-03-26T05:59:03.380Z,6.217
2023-03-26T06:00:03.715Z,6.172
2023-03-26T06:01:03.900Z,6.257
2023-03-26T06:02:04.149Z,6.246
2023-03-26T06:03:03.566Z,6.260
2023-03-26T06:04:03.722Z,6.310
2023-03-26T06:05:03.650Z,6.334
2023-03-26T06:06:03.784Z,6.358
2023-03-26T06:07:03.990Z,6.372
2023-03-26T06:08:03.390Z,6.431
2023-03-26T06:09:03.545Z,6.441
2023-03-26T06:10:03.789Z,6.484
2023-03-26T06:11:04.037Z,6.572
2023-03-26T06:12:03.240Z,6.596
2023-03-26T06:13:03.532Z,6.650
2023-03-26T06:14:03.652Z,6.676
2023-03-26T06:15:03.796Z,6.687
2023-03-26T06:16:04.155Z,6.740
2023-03-26T06:17:03.549Z,6.759
2023-03-26T06:18:03.784Z,6.764
2023-03-26T06:19:03.181Z,6.772
2023-03-26T06:20:03.399Z,6.850
2023-03-26T06:21:03.708Z,6.802
2023-03-26T06:22:03.830Z,6.764
2023-03-26T06:23:04.155Z,6.719
2023-03-26T06:25:03.594Z,6.671
2023-03-26T06:26:03.876Z,6.716
2023-03-26T06:27:04.047Z,6.724
2023-03-26T06:28:03.244Z,6.687
2023-03-26T06:29:03.420Z,6.698
2023-03-26T06:30:03.642Z,6.783
2023-03-26T06:31:04.019Z,6.786
2023-03-26T06:32:12.684Z,6.804
2023-03-26T06:33:03.416Z,6.740
2023-03-26T06:34:03.569Z,6.826
2023-03-26T06:35:03.833Z,6.804
2023-03-26T06:36:04.192Z,6.836
2023-03-26T06:37:03.496Z,6.834
2023-03-26T06:38:03.680Z,6.850
2023-03-26T06:39:07.519Z,6.922
2023-03-26T06:40:03.890Z,6.941
2023-03-26T06:41:04.072Z,7.063
2023-03-26T06:43:10.522Z,6.986
2023-03-26T06:45:03.235Z,7.130
2023-03-26T06:46:03.375Z,7.085
2023-03-26T06:47:03.735Z,7.119
2023-03-26T06:48:04.142Z,7.098
2023-03-26T06:49:03.440Z,7.119
2023-03-26T06:50:03.620Z,7.184
2023-03-26T06:51:03.766Z,7.229
2023-03-26T06:52:03.956Z,7.258
2023-03-26T06:54:03.220Z,7.381
2023-03-26T06:55:03.563Z,7.472
2023-03-26T06:56:03.713Z,7.403
2023-03-26T06:57:03.906Z,7.469
2023-03-26T06:58:04.123Z,7.459
2023-03-26T06:59:03.251Z,7.419
2023-03-26T07:00:03.479Z,7.411
2023-03-26T07:01:03.777Z,7.427
2023-03-26T07:02:03.202Z,7.517
2023-03-26T07:03:03.583Z,7.477
2023-03-26T07:04:03.965Z,7.443
2023-03-26T07:05:03.372Z,7.504
2023-03-26T07:07:03.506Z,7.440
2023-03-26T07:08:04.680Z,7.525
2023-03-26T07:10:03.377Z,7.541
2023-03-26T07:11:03.525Z,7.528
2023-03-26T07:12:03.630Z,7.536
2023-03-26T07:13:03.807Z,7.627
2023-03-26T07:14:04.008Z,7.600
2023-03-26T07:15:03.273Z,7.648
2023-03-26T07:16:03.441Z,7.632
2023-03-26T07:17:03.788Z,7.587
2023-03-26T07:18:04.046Z,7.608
2023-03-26T07:20:03.631Z,7.581
2023-03-26T07:21:04.023Z,7.651
2023-03-26T07:22:03.199Z,7.688
2023-03-26T07:23:03.380Z,7.718
2023-03-26T07:25:04.411Z,7.589
2023-03-26T07:26:03.701Z,7.555
2023-03-26T07:27:03.846Z,7.552
2023-03-26T07:28:03.976Z,7.632
2023-03-26T07:29:08.625Z,7.659
2023-03-26T07:31:03.875Z,7.651
2023-03-26T07:32:03.184Z,7.686
2023-03-26T07:33:03.940Z,7.654
2023-03-26T07:34:03.205Z,7.755
2023-03-26T07:35:03.493Z,7.675
2023-03-26T07:36:03.982Z,7.787
2023-03-26T07:38:03.351Z,7.752
2023-03-26T07:39:03.565Z,7.771
2023-03-26T07:40:03.727Z,7.827
2023-03-26T07:41:04.054Z,7.806
2023-03-26T07:42:03.207Z,7.902
2023-03-26T07:43:03.420Z,7.979
2023-03-26T07:44:03.692Z,7.939
2023-03-26T07:45:03.915Z,7.974
2023-03-26T07:46:03.142Z,7.950
2023-03-26T07:47:03.556Z,7.979
2023-03-26T07:48:03.792Z,8.108
2023-03-26T07:49:04.262Z,8.129
2023-03-26T07:50:03.456Z,8.059
2023-03-26T07:51:03.853Z,8.132
2023-03-26T07:52:03.999Z,8.102
2023-03-26T07:53:03.233Z,8.059
2023-03-26T07:54:03.436Z,8.140
2023-03-26T07:55:03.860Z,8.129
2023-03-26T07:56:04.084Z,8.182
2023-03-26T07:57:04.323Z,8.185
2023-03-26T07:58:03.949Z,8.190
2023-03-26T07:59:04.210Z,8.188
2023-03-26T08:00:03.554Z,8.132
2023-03-26T08:01:03.865Z,8.132
2023-03-26T08:02:04.034Z,8.041
2023-03-26T08:03:03.459Z,8.049
2023-03-26T08:06:03.233Z,7.870
2023-03-26T08:07:03.468Z,7.851
2023-03-26T08:08:03.660Z,7.803
2023-03-26T08:09:03.133Z,7.744
2023-03-26T08:10:03.367Z,7.712
2023-03-26T08:11:03.716Z,7.731
2023-03-26T08:12:03.878Z,7.776
2023-03-26T08:13:04.083Z,7.760
2023-03-26T08:14:03.295Z,7.734
2023-03-26T08:15:03.476Z,7.696
2023-03-26T08:16:03.731Z,7.675
2023-03-26T08:17:03.347Z,7.683
2023-03-26T08:18:03.687Z,7.688
2023-03-26T08:19:03.924Z,7.675
2023-03-26T08:20:04.126Z,7.688
2023-03-26T08:21:03.324Z,7.726
2023-03-26T08:22:03.463Z,7.790
2023-03-26T08:23:03.673Z,7.835
2023-03-26T08:24:08.501Z,7.774
2023-03-26T08:26:03.983Z,7.763
2023-03-26T08:28:03.209Z,7.750
2023-03-26T08:29:03.424Z,7.840
2023-03-26T08:30:03.650Z,7.878
2023-03-26T08:31:03.926Z,7.827
2023-03-26T08:32:03.299Z,7.835
2023-03-26T08:33:03.509Z,7.851
2023-03-26T08:34:03.819Z,7.856
2023-03-26T08:35:04.058Z,7.846
2023-03-26T08:36:03.327Z,7.787
2023-03-26T08:37:03.939Z,7.784
2023-03-26T08:38:04.115Z,7.859
2023-03-26T08:39:03.316Z,7.771
2023-03-26T08:40:03.486Z,7.726
2023-03-26T08:41:03.745Z,7.726
2023-03-26T08:42:03.903Z,7.720
2023-03-26T08:43:04.044Z,7.686
2023-03-26T08:44:03.143Z,7.683
2023-03-26T08:45:03.462Z,7.702
2023-03-26T08:46:03.683Z,7.742
2023-03-26T08:47:04.029Z,7.734
2023-03-26T08:48:03.244Z,7.680
2023-03-26T08:49:03.514Z,7.744
2023-03-26T08:50:04.127Z,7.728
2023-03-26T08:51:03.295Z,7.742
2023-03-26T08:52:03.524Z,7.680
2023-03-26T08:53:03.702Z,7.707
2023-03-26T08:54:03.906Z,7.707
2023-03-26T08:55:04.096Z,7.808
2023-03-26T08:56:03.266Z,7.824
2023-03-26T08:57:03.393Z,7.795
2023-03-26T08:58:03.683Z,7.736
2023-03-26T08:59:03.870Z,7.760
2023-03-26T09:00:04.072Z,7.715
2023-03-26T09:01:03.388Z,7.795
2023-03-26T09:02:03.824Z,7.747
2023-03-26T09:03:04.099Z,7.718
2023-03-26T09:04:03.452Z,7.726
2023-03-26T09:05:03.698Z,7.771
2023-03-26T09:06:03.839Z,7.790
2023-03-26T09:08:03.958Z,7.728
2023-03-26T09:09:03.113Z,7.798
2023-03-26T09:10:04.075Z,7.782
2023-03-26T09:12:03.392Z,7.798
2023-03-26T09:13:03.280Z,7.686
2023-03-26T09:14:03.430Z,7.680
2023-03-26T09:15:03.771Z,7.654
2023-03-26T09:16:04.000Z,7.654
2023-03-26T09:18:03.415Z,7.613
2023-03-26T09:19:03.886Z,7.557
2023-03-26T09:20:04.120Z,7.533
2023-03-26T09:21:03.333Z,7.501
2023-03-26T09:22:03.529Z,7.485
2023-03-26T09:23:03.708Z,7.483
2023-03-26T09:24:03.959Z,7.485
2023-03-26T09:25:04.205Z,7.445
2023-03-26T09:26:03.455Z,7.501
2023-03-26T09:27:03.630Z,7.499
2023-03-26T09:28:03.756Z,7.488
2023-03-26T09:29:03.892Z,7.483
2023-03-26T09:30:04.136Z,7.445
2023-03-26T09:31:03.389Z,7.496
2023-03-26T09:32:03.760Z,7.499
2023-03-26T09:33:04.124Z,7.531
2023-03-26T09:34:03.387Z,7.504
2023-03-26T09:35:03.612Z,7.499
2023-03-26T09:36:04.009Z,7.573
2023-03-26T09:37:03.526Z,7.528
2023-03-26T09:38:08.528Z,7.571
2023-03-26T09:40:03.915Z,7.592
2023-03-26T09:41:04.132Z,7.597
2023-03-26T09:42:03.288Z,7.613
2023-03-26T09:43:03.408Z,7.595
2023-03-26T09:44:03.535Z,7.533
2023-03-26T09:45:03.736Z,7.472
2023-03-26T09:46:03.998Z,7.491
2023-03-26T09:47:03.311Z,7.541
2023-03-26T09:48:03.729Z,7.483
2023-03-26T09:49:03.925Z,7.477
2023-03-26T09:50:04.138Z,7.525
2023-03-26T09:52:03.502Z,7.456
2023-03-26T09:53:03.746Z,7.536
2023-03-26T09:54:04.049Z,7.493
2023-03-26T09:55:03.185Z,7.504
2023-03-26T09:56:03.394Z,7.557
2023-03-26T09:57:03.674Z,7.608
2023-03-26T09:59:03.588Z,7.605
2023-03-26T10:00:03.877Z,7.613
2023-03-26T10:01:04.267Z,7.646
2023-03-26T10:02:03.876Z,7.736
2023-03-26T10:03:05.095Z,7.707
2023-03-26T10:05:03.237Z,7.627
2023-03-26T10:06:03.531Z,7.613
2023-03-26T10:07:03.688Z,7.568
2023-03-26T10:08:04.224Z,7.493
2023-03-26T10:09:03.335Z,7.509
2023-03-26T10:10:03.797Z,7.557
2023-03-26T10:11:03.992Z,7.587
2023-03-26T10:12:03.190Z,7.664
2023-03-26T10:13:13.868Z,7.654
2023-03-26T10:14:03.484Z,7.584
2023-03-26T10:15:03.622Z,7.691
2023-03-26T10:16:03.483Z,7.691
2023-03-26T10:17:03.937Z,7.667
2023-03-26T10:19:03.412Z,7.734
2023-03-26T10:20:03.856Z,7.694
2023-03-26T10:21:03.993Z,7.699
2023-03-26T10:22:03.213Z,7.624
2023-03-26T10:23:03.400Z,7.595
2023-03-26T10:24:10.017Z,7.571
2023-03-26T10:26:03.247Z,7.635
2023-03-26T10:27:10.713Z,7.643
2023-03-26T10:29:03.297Z,7.429
2023-03-26T10:30:03.623Z,7.445
2023-03-26T10:31:03.878Z,7.357
2023-03-26T10:32:03.287Z,7.301
2023-03-26T10:33:03.696Z,7.328
2023-03-26T10:34:03.726Z,7.301
2023-03-26T10:35:04.129Z,7.317
2023-03-26T10:36:03.383Z,7.365
2023-03-26T10:37:03.745Z,7.357
2023-03-26T10:38:03.908Z,7.352
2023-03-26T10:39:04.047Z,7.349
2023-03-26T10:41:06.992Z,7.346
2023-03-26T10:42:06.169Z,7.427
2023-03-26T10:43:06.529Z,7.432
2023-03-26T10:44:08.646Z,7.408
2023-03-26T10:45:07.380Z,7.512
2023-03-26T10:46:06.722Z,7.504
2023-03-26T10:47:07.128Z,7.571
2023-03-26T10:48:06.445Z,7.525
2023-03-26T10:49:06.845Z,7.536
2023-03-26T10:50:07.053Z,7.605
2023-03-26T10:51:06.285Z,7.536
2023-03-26T10:52:06.544Z,7.565
2023-03-26T10:53:06.793Z,7.600
2023-03-26T10:54:06.995Z,7.605
2023-03-26T10:55:06.153Z,7.632
2023-03-26T10:56:06.661Z,7.627
2023-03-26T10:57:06.965Z,7.723
2023-03-26T10:58:06.216Z,7.758
2023-03-26T10:59:06.448Z,7.747
2023-03-26T11:00:06.612Z,7.595
2023-03-26T11:01:06.457Z,7.571
2023-03-26T11:02:07.016Z,7.624
2023-03-26T11:03:06.736Z,7.651
2023-03-26T11:04:06.920Z,7.638
2023-03-26T11:05:07.082Z,7.624
2023-03-26T11:06:06.434Z,7.659
2023-03-26T11:07:06.695Z,7.720
2023-03-26T11:08:06.915Z,7.739
2023-03-26T11:09:06.547Z,7.702
2023-03-26T11:10:06.794Z,7.766
2023-03-26T11:11:06.995Z,7.819
2023-03-26T11:12:25.994Z,7.827
2023-03-26T11:14:06.264Z,7.947
2023-03-26T11:15:06.323Z,7.990
2023-03-26T11:16:06.564Z,7.990
2023-03-26T11:17:06.805Z,7.910
2023-03-26T11:19:11.226Z,7.966
2023-03-26T11:20:11.638Z,7.971
2023-03-26T11:21:18.445Z,8.038
2023-03-26T11:23:11.144Z,8.003
2023-03-26T11:24:16.256Z,7.955
2023-03-26T11:26:11.839Z,7.886
2023-03-26T11:27:15.646Z,7.873
2023-03-26T11:28:12.856Z,7.875
2023-03-26T11:29:31.179Z,7.942
2023-03-26T11:31:15.205Z,7.803
2023-03-26T11:33:14.925Z,7.814
2023-03-26T11:34:14.396Z,7.699
2023-03-26T11:35:14.842Z,7.659
2023-03-26T11:36:14.179Z,7.600
2023-03-26T11:37:14.427Z,7.563
2023-03-26T11:38:14.556Z,7.568
2023-03-26T11:39:14.849Z,7.579
2023-03-26T11:40:15.053Z,7.544
2023-03-26T11:43:14.349Z,7.448
2023-03-26T11:44:14.632Z,7.421
2023-03-26T11:45:14.830Z,7.384
2023-03-26T11:46:15.039Z,7.429
2023-03-26T11:48:15.153Z,7.472
2023-03-26T11:49:14.297Z,7.453
2023-03-26T11:50:14.533Z,7.467
2023-03-26T11:51:14.996Z,7.445
2023-03-26T11:53:14.332Z,7.451
2023-03-26T11:54:14.706Z,7.523
2023-03-26T11:55:14.902Z,7.568
2023-03-26T11:56:15.139Z,7.531
2023-03-26T11:58:15.109Z,7.520
2023-03-26T11:59:14.347Z,7.477
2023-03-26T12:00:15.048Z,7.443
2023-03-26T12:03:15.001Z,7.405
2023-03-26T12:04:14.258Z,7.421
2023-03-26T12:05:15.174Z,7.395
2023-03-26T12:06:14.428Z,7.419
2023-03-26T12:07:14.687Z,7.437
2023-03-26T12:08:15.340Z,7.419
2023-03-26T12:09:14.444Z,7.448
2023-03-26T12:10:19.656Z,7.525
2023-03-26T12:12:14.097Z,7.632
2023-03-26T12:13:14.241Z,7.771
2023-03-26T12:14:14.408Z,7.886
2023-03-26T12:15:14.672Z,7.937
2023-03-26T12:16:14.985Z,8.027
2023-03-26T12:18:14.636Z,8.102
2023-03-26T12:19:14.852Z,8.209
2023-03-26T12:20:15.117Z,8.217
2023-03-26T12:22:14.377Z,8.364
2023-03-26T12:23:14.548Z,8.431
2023-03-26T12:24:14.817Z,8.361
2023-03-26T12:25:15.131Z,8.569
2023-03-26T12:26:14.285Z,8.727
2023-03-26T12:27:14.557Z,8.762
2023-03-26T12:28:14.787Z,8.679
2023-03-26T12:29:14.976Z,8.740
2023-03-26T12:30:14.166Z,8.823
2023-03-26T12:31:14.723Z,8.796
2023-03-26T12:32:15.163Z,9.154
2023-03-26T12:34:16.447Z,9.213
2023-03-26T12:35:16.576Z,9.435
2023-03-26T12:36:16.792Z,9.747
2023-03-26T12:37:16.912Z,9.971
2023-03-26T12:38:16.092Z,10.046
2023-03-26T12:40:06.456Z,10.153
2023-03-26T12:42:26.220Z,10.361
2023-03-26T12:44:45.605Z,11.037
2023-03-26T12:47:55.878Z,10.855
2023-03-26T12:48:26.968Z,11.242
2023-03-26T12:49:26.800Z,11.603
2023-03-26T12:50:33.869Z,11.688
2023-03-26T12:51:26.645Z,12.094
2023-03-26T12:52:26.848Z,11.873
2023-03-26T12:53:26.989Z,11.993
2023-03-26T12:54:26.369Z,11.819
2023-03-26T12:55:26.579Z,11.902
2023-03-26T12:56:27.009Z,11.958
2023-03-26T12:57:26.355Z,11.969
2023-03-26T12:58:26.720Z,12.503
2023-03-26T12:59:26.958Z,12.236
2023-03-26T13:00:26.202Z,12.447
2023-03-26T13:01:26.496Z,12.295
2023-03-26T13:02:27.241Z,12.610
2023-03-26T13:03:26.812Z,12.535
2023-03-26T13:04:28.219Z,12.706
2023-03-26T13:06:31.066Z,13.272
2023-03-26T13:08:33.520Z,13.130
2023-03-26T13:09:33.808Z,13.413
2023-03-26T13:10:33.499Z,13.795
2023-03-26T13:11:33.715Z,13.536
2023-03-26T13:12:33.869Z,12.874
2023-03-26T13:13:33.111Z,12.698
2023-03-26T13:14:33.584Z,12.428
2023-03-26T13:15:33.777Z,12.169
2023-03-26T13:16:33.794Z,12.065
2023-03-26T13:17:33.246Z,11.779
2023-03-26T13:18:33.623Z,11.787
2023-03-26T13:19:33.838Z,12.038
2023-03-26T13:20:34.105Z,11.910
2023-03-26T13:21:33.361Z,11.782
2023-03-26T13:22:33.997Z,11.400
2023-03-26T13:24:33.463Z,11.365
2023-03-26T13:25:33.695Z,11.061
2023-03-26T13:26:33.996Z,10.869
2023-03-26T13:27:33.213Z,10.997
2023-03-26T13:28:33.392Z,11.090
2023-03-26T13:29:33.501Z,11.357
2023-03-26T13:30:33.930Z,11.109
2023-03-26T13:32:33.657Z,10.898
2023-03-26T13:33:34.091Z,10.909
2023-03-26T13:35:33.667Z,11.213
2023-03-26T13:36:33.345Z,11.424
2023-03-26T13:38:33.764Z,11.461
2023-03-26T13:39:34.235Z,11.339
2023-03-26T13:40:33.490Z,11.141
2023-03-26T13:41:33.751Z,10.981
2023-03-26T13:42:33.964Z,11.010
2023-03-26T13:43:33.172Z,11.002
2023-03-26T13:44:33.382Z,11.023
2023-03-26T13:45:33.444Z,10.906
2023-03-26T13:46:33.711Z,10.938
2023-03-26T13:47:34.075Z,10.906
2023-03-26T13:49:33.575Z,10.861
2023-03-26T13:50:33.769Z,10.837
2023-03-26T13:51:33.620Z,10.690
2023-03-26T13:52:33.765Z,10.620
2023-03-26T13:53:36.817Z,10.567
2023-03-26T13:54:33.972Z,10.570
2023-03-26T13:55:33.174Z,10.471
2023-03-26T13:56:33.446Z,10.420
2023-03-26T13:57:34.016Z,10.359
2023-03-26T13:59:33.785Z,10.030
2023-03-26T14:00:34.109Z,9.961
2023-03-26T14:02:33.872Z,9.675
2023-03-26T14:03:33.255Z,9.517
2023-03-26T14:04:33.639Z,9.272
2023-03-26T14:05:33.861Z,9.138
2023-03-26T14:06:34.162Z,9.240